sensor_id;sensor_type;location;lat;lon;timestamp;pressure;altitude;pressure_sealevel;temperature;humidity
36354;BME280;22383;51.114;13.666;2023-05-29T00:01:33;68572.50;;;12.49;100.00
36354;BME280;22383;51.114;13.666;2023-05-29T00:04:00;68558.50;;;12.39;100.00
36354;BME280;22383;51.114;13.666;2023-05-29T00:06:28;68554.13;;;12.30;100.00
36354;BME280;22383;51.114;13.666;2023-05-29T00:08:58;68541.44;;;12.23;100.00
36354;BME280;22383;51.114;13.666;2023-05-29T00:11:26;68540.72;;;12.20;100.00
36354;BME280;22383;51.114;13.666;2023-05-29T00:13:53;68533.88;;;12.14;100.00
36354;BME280;22383;51.114;13.666;2023-05-29T00:16:20;68532.38;;;12.15;100.00
36354;BME280;22383;51.114;13.666;2023-05-29T00:18:50;68528.22;;;12.09;100.00
36354;BME280;22383;51.114;13.666;2023-05-29T00:21:19;68513.66;;;11.98;100.00
36354;BME280;22383;51.114;13.666;2023-05-29T00:23:47;68498.13;;;11.82;100.00
36354;BME280;22383;51.114;13.666;2023-05-29T00:26:15;68497.94;;;11.79;100.00
36354;BME280;22383;51.114;13.666;2023-05-29T00:28:50;68502.66;;;11.86;100.00
36354;BME280;22383;51.114;13.666;2023-05-29T00:31:18;68498.31;;;11.84;100.00
36354;BME280;22383;51.114;13.666;2023-05-29T00:33:47;68492.44;;;11.77;100.00
36354;BME280;22383;51.114;13.666;2023-05-29T00:36:15;68475.97;;;11.62;100.00
36354;BME280;22383;51.114;13.666;2023-05-29T00:38:43;68461.25;;;11.48;100.00
36354;BME280;22383;51.114;13.666;2023-05-29T00:41:15;68460.88;;;11.43;100.00
36354;BME280;22383;51.114;13.666;2023-05-29T00:43:46;68453.88;;;11.42;100.00
36354;BME280;22383;51.114;13.666;2023-05-29T00:46:14;68450.44;;;11.39;100.00
36354;BME280;22383;51.114;13.666;2023-05-29T00:48:46;68442.50;;;11.31;100.00
36354;BME280;22383;51.114;13.666;2023-05-29T00:51:14;68437.97;;;11.27;100.00
36354;BME280;22383;51.114;13.666;2023-05-29T00:53:43;68429.47;;;11.20;100.00
36354;BME280;22383;51.114;13.666;2023-05-29T00:56:12;68419.25;;;11.10;100.00
36354;BME280;22383;51.114;13.666;2023-05-29T00:58:42;68409.44;;;11.06;100.00
36354;BME280;22383;51.114;13.666;2023-05-29T01:01:10;68421.91;;;11.10;100.00
36354;BME280;22383;51.114;13.666;2023-05-29T01:03:39;68402.06;;;11.00;100.00
36354;BME280;22383;51.114;13.666;2023-05-29T01:06:07;68394.84;;;10.88;100.00
36354;BME280;22383;51.114;13.666;2023-05-29T01:08:40;68387.88;;;10.79;100.00
36354;BME280;22383;51.114;13.666;2023-05-29T01:11:26;68387.31;;;10.79;100.00
36354;BME280;22383;51.114;13.666;2023-05-29T01:13:56;68372.56;;;10.73;100.00
36354;BME280;22383;51.114;13.666;2023-05-29T01:16:48;68381.06;;;10.73;100.00
36354;BME280;22383;51.114;13.666;2023-05-29T01:25:46;68373.53;;;10.64;100.00
36354;BME280;22383;51.114;13.666;2023-05-29T01:28:20;68367.47;;;10.68;100.00
36354;BME280;22383;51.114;13.666;2023-05-29T01:30:49;68376.53;;;10.69;100.00
36354;BME280;22383;51.114;13.666;2023-05-29T01:33:20;68365.94;;;10.62;100.00
36354;BME280;22383;51.114;13.666;2023-05-29T01:35:50;68374.47;;;10.70;100.00
36354;BME280;22383;51.114;13.666;2023-05-29T01:38:20;68372.19;;;10.68;100.00
36354;BME280;22383;51.114;13.666;2023-05-29T01:40:54;68373.69;;;10.67;100.00
36354;BME280;22383;51.114;13.666;2023-05-29T01:43:39;68361.22;;;10.63;100.00
36354;BME280;22383;51.114;13.666;2023-05-29T01:46:16;68361.22;;;10.55;100.00
36354;BME280;22383;51.114;13.666;2023-05-29T01:48:46;68357.63;;;10.50;100.00
36354;BME280;22383;51.114;13.666;2023-05-29T01:51:18;68345.16;;;10.46;100.00
36354;BME280;22383;51.114;13.666;2023-05-29T01:53:52;68338.72;;;10.37;100.00
36354;BME280;22383;51.114;13.666;2023-05-29T01:56:21;68338.94;;;10.33;100.00
36354;BME280;22383;51.114;13.666;2023-05-29T01:58:58;68326.63;;;10.24;100.00
36354;BME280;22383;51.114;13.666;2023-05-29T02:01:34;68320.97;;;10.19;100.00
36354;BME280;22383;51.114;13.666;2023-05-29T02:04:02;68318.50;;;10.21;100.00
36354;BME280;22383;51.114;13.666;2023-05-29T02:06:33;68317.72;;;10.18;100.00
36354;BME280;22383;51.114;13.666;2023-05-29T02:09:01;68311.13;;;10.15;100.00
36354;BME280;22383;51.114;13.666;2023-05-29T02:11:30;68310.94;;;10.12;100.00
36354;BME280;22383;51.114;13.666;2023-05-29T02:14:08;68305.09;;;10.05;100.00
36354;BME280;22383;51.114;13.666;2023-05-29T02:16:40;68290.72;;;9.96;100.00
36354;BME280;22383;51.114;13.666;2023-05-29T02:19:11;68287.16;;;9.91;100.00
36354;BME280;22383;51.114;13.666;2023-05-29T02:21:47;68282.03;;;9.86;100.00
36354;BME280;22383;51.114;13.666;2023-05-29T02:24:25;68284.69;;;9.86;100.00
36354;BME280;22383;51.114;13.666;2023-05-29T02:26:58;68279.00;;;9.81;100.00
36354;BME280;22383;51.114;13.666;2023-05-29T02:29:29;68277.31;;;9.79;100.00
36354;BME280;22383;51.114;13.666;2023-05-29T02:32:21;68275.22;;;9.80;100.00
36354;BME280;22383;51.114;13.666;2023-05-29T02:35:07;68276.38;;;9.81;100.00
36354;BME280;22383;51.114;13.666;2023-05-29T02:37:45;68265.25;;;9.73;100.00
36354;BME280;22383;51.114;13.666;2023-05-29T02:40:18;68267.88;;;9.73;100.00
36354;BME280;22383;51.114;13.666;2023-05-29T02:42:47;68254.09;;;9.58;100.00
36354;BME280;22383;51.114;13.666;2023-05-29T02:45:20;68253.16;;;9.60;100.00
36354;BME280;22383;51.114;13.666;2023-05-29T02:47:57;68246.91;;;9.54;100.00
36354;BME280;22383;51.114;13.666;2023-05-29T02:50:33;68211.03;;;9.19;100.00
36354;BME280;22383;51.114;13.666;2023-05-29T02:53:03;68181.00;;;8.92;100.00
36354;BME280;22383;51.114;13.666;2023-05-29T02:55:36;68174.06;;;8.91;100.00
36354;BME280;22383;51.114;13.666;2023-05-29T02:58:05;68169.13;;;8.81;100.00
36354;BME280;22383;51.114;13.666;2023-05-29T03:00:38;68148.94;;;8.65;100.00
36354;BME280;22383;51.114;13.666;2023-05-29T03:03:14;68148.75;;;8.63;100.00
36354;BME280;22383;51.114;13.666;2023-05-29T03:05:53;68135.19;;;8.58;100.00
36354;BME280;22383;51.114;13.666;2023-05-29T03:08:26;68138.19;;;8.56;100.00
36354;BME280;22383;51.114;13.666;2023-05-29T03:11:12;68164.22;;;8.79;100.00
36354;BME280;22383;51.114;13.666;2023-05-29T03:13:48;68170.66;;;8.87;100.00
36354;BME280;22383;51.114;13.666;2023-05-29T03:16:17;68188.59;;;9.01;100.00
36354;BME280;22383;51.114;13.666;2023-05-29T03:18:45;68191.56;;;8.99;100.00
36354;BME280;22383;51.114;13.666;2023-05-29T03:21:18;68186.31;;;8.99;100.00
36354;BME280;22383;51.114;13.666;2023-05-29T03:23:47;68189.69;;;9.02;100.00
36354;BME280;22383;51.114;13.666;2023-05-29T03:26:23;68194.03;;;9.04;100.00
36354;BME280;22383;51.114;13.666;2023-05-29T03:28:54;68201.97;;;9.11;100.00
36354;BME280;22383;51.114;13.666;2023-05-29T03:31:25;68189.16;;;9.02;100.00
36354;BME280;22383;51.114;13.666;2023-05-29T03:33:59;68207.44;;;9.14;100.00
36354;BME280;22383;51.114;13.666;2023-05-29T03:36:42;68207.84;;;9.19;100.00
36354;BME280;22383;51.114;13.666;2023-05-29T03:39:12;68204.44;;;9.16;100.00
36354;BME280;22383;51.114;13.666;2023-05-29T03:41:46;68214.63;;;9.25;100.00
36354;BME280;22383;51.114;13.666;2023-05-29T03:44:13;68228.97;;;9.40;100.00
36354;BME280;22383;51.114;13.666;2023-05-29T03:46:43;68238.41;;;9.46;100.00
36354;BME280;22383;51.114;13.666;2023-05-29T03:49:11;68245.59;;;9.51;100.00
36354;BME280;22383;51.114;13.666;2023-05-29T03:51:42;68253.16;;;9.60;100.00
36354;BME280;22383;51.114;13.666;2023-05-29T03:54:33;68264.66;;;9.73;100.00
36354;BME280;22383;51.114;13.666;2023-05-29T03:57:02;68252.75;;;9.62;100.00
36354;BME280;22383;51.114;13.666;2023-05-29T03:59:37;68254.84;;;9.61;100.00
36354;BME280;22383;51.114;13.666;2023-05-29T04:02:12;68262.22;;;9.68;100.00
36354;BME280;22383;51.114;13.666;2023-05-29T04:04:47;68274.28;;;9.74;100.00
36354;BME280;22383;51.114;13.666;2023-05-29T04:07:15;68286.94;;;9.88;100.00
36354;BME280;22383;51.114;13.666;2023-05-29T04:09:57;68304.13;;;10.06;100.00
36354;BME280;22383;51.114;13.666;2023-05-29T04:12:28;68299.03;;;10.01;100.00
36354;BME280;22383;51.114;13.666;2023-05-29T04:15:04;68281.47;;;9.86;100.00
36354;BME280;22383;51.114;13.666;2023-05-29T04:17:35;68275.44;;;9.82;100.00
36354;BME280;22383;51.114;13.666;2023-05-29T04:20:10;68269.59;;;9.75;100.00
36354;BME280;22383;51.114;13.666;2023-05-29T04:22:47;68277.88;;;9.80;100.00
36354;BME280;22383;51.114;13.666;2023-05-29T04:25:18;68213.91;;;9.65;100.00
36354;BME280;22383;51.114;13.666;2023-05-29T04:27:48;68265.03;;;9.71;100.00
36354;BME280;22383;51.114;13.666;2023-05-29T04:30:18;68270.16;;;9.75;100.00
36354;BME280;22383;51.114;13.666;2023-05-29T04:32:50;68280.34;;;9.84;100.00
36354;BME280;22383;51.114;13.666;2023-05-29T04:35:23;68449.31;;;11.38;100.00
36354;BME280;22383;51.114;13.666;2023-05-29T04:38:04;68726.66;;;13.91;100.00
36354;BME280;22383;51.114;13.666;2023-05-29T04:40:58;69008.13;;;16.42;100.00
36354;BME280;22383;51.114;13.666;2023-05-29T04:43:33;69135.38;;;17.60;100.00
36354;BME280;22383;51.114;13.666;2023-05-29T04:46:08;69247.16;;;18.60;100.00
36354;BME280;22383;51.114;13.666;2023-05-29T04:48:43;69199.59;;;18.22;96.22
36354;BME280;22383;51.114;13.666;2023-05-29T04:51:14;69288.97;;;19.00;91.69
36354;BME280;22383;51.114;13.666;2023-05-29T04:53:55;69349.47;;;19.55;86.26
36354;BME280;22383;51.114;13.666;2023-05-29T04:56:26;69322.84;;;19.26;86.63
36354;BME280;22383;51.114;13.666;2023-05-29T04:58:59;69303.47;;;19.08;86.56
36354;BME280;22383;51.114;13.666;2023-05-29T05:01:30;69266.69;;;18.80;86.19
36354;BME280;22383;51.114;13.666;2023-05-29T05:04:00;69290.91;;;18.97;86.37
36354;BME280;22383;51.114;13.666;2023-05-29T05:07:05;69311.03;;;19.18;86.54
36354;BME280;22383;51.114;13.666;2023-05-29T05:09:42;69284.47;;;18.89;84.38
36354;BME280;22383;51.114;13.666;2023-05-29T05:12:19;69343.41;;;19.44;85.89
36354;BME280;22383;51.114;13.666;2023-05-29T05:15:01;69432.09;;;20.27;81.21
36354;BME280;22383;51.114;13.666;2023-05-29T05:17:35;69337.72;;;19.39;83.37
36354;BME280;22383;51.114;13.666;2023-05-29T05:20:04;69284.97;;;18.97;85.15
36354;BME280;22383;51.114;13.666;2023-05-29T05:22:33;69252.66;;;18.63;87.41
36354;BME280;22383;51.114;13.666;2023-05-29T05:25:05;69216.91;;;18.33;89.10
36354;BME280;22383;51.114;13.666;2023-05-29T05:27:35;69221.09;;;18.39;91.44
36354;BME280;22383;51.114;13.666;2023-05-29T05:30:09;69157.78;;;17.82;96.30
36354;BME280;22383;51.114;13.666;2023-05-29T05:32:40;69330.22;;;19.40;89.45
36354;BME280;22383;51.114;13.666;2023-05-29T05:35:15;69326.63;;;19.34;88.06
36354;BME280;22383;51.114;13.666;2023-05-29T05:37:51;69452.06;;;20.45;83.85
36354;BME280;22383;51.114;13.666;2023-05-29T05:40:18;69575.66;;;21.58;78.89
36354;BME280;22383;51.114;13.666;2023-05-29T05:42:54;69645.97;;;22.21;72.93
36354;BME280;22383;51.114;13.666;2023-05-29T05:45:36;69757.53;;;23.21;69.25
36354;BME280;22383;51.114;13.666;2023-05-29T05:48:06;69706.03;;;22.75;68.26
36354;BME280;22383;51.114;13.666;2023-05-29T05:50:37;69631.09;;;22.08;69.73
36354;BME280;22383;51.114;13.666;2023-05-29T05:53:05;69752.06;;;23.12;68.26
36354;BME280;22383;51.114;13.666;2023-05-29T05:55:36;69756.38;;;23.20;66.18
36354;BME280;22383;51.114;13.666;2023-05-29T05:58:04;69811.16;;;23.67;62.71
36354;BME280;22383;51.114;13.666;2023-05-29T06:00:35;69702.03;;;22.72;66.44
36354;BME280;22383;51.114;13.666;2023-05-29T06:03:08;69658.41;;;22.30;64.88
36354;BME280;22383;51.114;13.666;2023-05-29T06:05:50;69691.59;;;22.60;67.06
36354;BME280;22383;51.114;13.666;2023-05-29T06:08:24;69652.28;;;22.27;65.98
36354;BME280;22383;51.114;13.666;2023-05-29T06:10:52;69641.97;;;22.18;65.23
36354;BME280;22383;51.114;13.666;2023-05-29T06:13:20;69614.38;;;21.90;67.12
36354;BME280;22383;51.114;13.666;2023-05-29T06:16:04;69561.34;;;21.45;68.79
36354;BME280;22383;51.114;13.666;2023-05-29T06:18:35;69506.75;;;20.91;70.68
36354;BME280;22383;51.114;13.666;2023-05-29T06:21:02;69465.38;;;20.59;73.32
36354;BME280;22383;51.114;13.666;2023-05-29T06:23:30;69495.25;;;20.88;72.87
36354;BME280;22383;51.114;13.666;2023-05-29T06:25:57;69536.47;;;21.18;72.38
36354;BME280;22383;51.114;13.666;2023-05-29T06:28:24;69569.97;;;21.53;72.26
36354;BME280;22383;51.114;13.666;2023-05-29T06:30:52;69626.22;;;21.99;70.88
36354;BME280;22383;51.114;13.666;2023-05-29T06:33:20;69720.00;;;22.83;67.93
36354;BME280;22383;51.114;13.666;2023-05-29T06:35:48;69813.03;;;23.71;64.84
36354;BME280;22383;51.114;13.666;2023-05-29T06:38:18;69849.84;;;24.07;61.89
36354;BME280;22383;51.114;13.666;2023-05-29T06:40:45;69812.56;;;23.64;61.14
36354;BME280;22383;51.114;13.666;2023-05-29T06:43:15;69650.97;;;22.23;64.29
36354;BME280;22383;51.114;13.666;2023-05-29T06:45:47;69664.13;;;22.35;65.44
36354;BME280;22383;51.114;13.666;2023-05-29T06:48:17;69719.75;;;22.88;64.91
36354;BME280;22383;51.114;13.666;2023-05-29T06:50:47;69724.56;;;22.87;63.96
36354;BME280;22383;51.114;13.666;2023-05-29T06:53:37;69705.13;;;22.70;65.43
36354;BME280;22383;51.114;13.666;2023-05-29T06:56:06;69709.69;;;22.74;65.94
36354;BME280;22383;51.114;13.666;2023-05-29T06:58:37;69667.72;;;22.41;67.89
36354;BME280;22383;51.114;13.666;2023-05-29T07:01:04;69623.50;;;21.99;67.53
36354;BME280;22383;51.114;13.666;2023-05-29T07:03:38;69591.25;;;21.75;68.01
36354;BME280;22383;51.114;13.666;2023-05-29T07:06:05;69642.38;;;22.16;67.42
36354;BME280;22383;51.114;13.666;2023-05-29T07:08:33;69649.59;;;22.27;66.36
36354;BME280;22383;51.114;13.666;2023-05-29T07:11:01;69652.28;;;22.27;65.87
36354;BME280;22383;51.114;13.666;2023-05-29T07:13:29;69610.94;;;21.87;65.95
36354;BME280;22383;51.114;13.666;2023-05-29T07:15:56;69588.66;;;21.67;66.96
36354;BME280;22383;51.114;13.666;2023-05-29T07:18:35;69608.66;;;21.85;65.74
36354;BME280;22383;51.114;13.666;2023-05-29T07:21:02;69607.50;;;21.84;65.93
36354;BME280;22383;51.114;13.666;2023-05-29T07:23:30;69633.97;;;22.10;62.71
36354;BME280;22383;51.114;13.666;2023-05-29T07:25:58;69684.88;;;22.56;60.56
36354;BME280;22383;51.114;13.666;2023-05-29T07:28:30;69744.63;;;23.05;63.10
36354;BME280;22383;51.114;13.666;2023-05-29T07:30:57;69769.56;;;23.32;62.30
36354;BME280;22383;51.114;13.666;2023-05-29T07:33:27;69837.91;;;23.89;60.02
36354;BME280;22383;51.114;13.666;2023-05-29T07:35:56;69911.53;;;24.60;55.83
36354;BME280;22383;51.114;13.666;2023-05-29T07:38:26;69873.16;;;24.25;54.88
36354;BME280;22383;51.114;13.666;2023-05-29T07:40:57;69913.25;;;24.61;56.30
36354;BME280;22383;51.114;13.666;2023-05-29T07:43:30;69920.13;;;24.67;54.69
36354;BME280;22383;51.114;13.666;2023-05-29T07:46:00;69917.84;;;24.65;54.49
36354;BME280;22383;51.114;13.666;2023-05-29T07:48:31;69879.44;;;24.31;52.86
36354;BME280;22383;51.114;13.666;2023-05-29T07:50:59;69852.81;;;24.02;53.86
36354;BME280;22383;51.114;13.666;2023-05-29T07:53:29;69812.47;;;23.71;53.16
36354;BME280;22383;51.114;13.666;2023-05-29T07:55:58;69788.69;;;23.45;55.08
36354;BME280;22383;51.114;13.666;2023-05-29T07:58:25;69760.38;;;23.24;56.43
36354;BME280;22383;51.114;13.666;2023-05-29T08:00:52;69711.91;;;22.83;55.76
36354;BME280;22383;51.114;13.666;2023-05-29T08:03:21;69713.88;;;22.80;55.07
36354;BME280;22383;51.114;13.666;2023-05-29T08:06:14;69667.72;;;22.41;54.45
36354;BME280;22383;51.114;13.666;2023-05-29T08:08:41;69664.44;;;22.40;55.33
36354;BME280;22383;51.114;13.666;2023-05-29T08:11:10;69679.00;;;22.49;58.40
36354;BME280;22383;51.114;13.666;2023-05-29T08:13:37;69675.97;;;22.43;56.14
36354;BME280;22383;51.114;13.666;2023-05-29T08:16:05;69694.66;;;22.58;56.85
36354;BME280;22383;51.114;13.666;2023-05-29T08:18:33;69632.97;;;22.12;53.02
36354;BME280;22383;51.114;13.666;2023-05-29T08:21:00;69618.38;;;21.94;54.56
36354;BME280;22383;51.114;13.666;2023-05-29T08:23:28;69640.09;;;22.14;57.01
36354;BME280;22383;51.114;13.666;2023-05-29T08:25:55;69642.53;;;22.18;56.88
36354;BME280;22383;51.114;13.666;2023-05-29T08:28:22;69676.69;;;22.46;56.72
36354;BME280;22383;51.114;13.666;2023-05-29T08:30:50;69692.56;;;22.58;54.95
36354;BME280;22383;51.114;13.666;2023-05-29T08:33:17;69675.16;;;22.48;55.23
36354;BME280;22383;51.114;13.666;2023-05-29T08:35:44;69693.13;;;22.59;55.70
36354;BME280;22383;51.114;13.666;2023-05-29T08:38:14;69696.31;;;22.66;56.37
36354;BME280;22383;51.114;13.666;2023-05-29T08:40:42;69703.75;;;22.73;54.42
36354;BME280;22383;51.114;13.666;2023-05-29T08:43:16;69723.19;;;22.91;54.60
36354;BME280;22383;51.114;13.666;2023-05-29T08:45:45;69712.16;;;22.78;55.31
36354;BME280;22383;51.114;13.666;2023-05-29T08:48:13;69643.53;;;22.17;52.47
36354;BME280;22383;51.114;13.666;2023-05-29T08:50:43;69672.53;;;22.40;54.92
36354;BME280;22383;51.114;13.666;2023-05-29T08:53:16;69669.69;;;22.38;56.98
36354;BME280;22383;51.114;13.666;2023-05-29T08:55:47;69677.03;;;22.52;54.48
36354;BME280;22383;51.114;13.666;2023-05-29T08:58:14;69693.28;;;22.61;52.52
36354;BME280;22383;51.114;13.666;2023-05-29T09:00:45;69687.72;;;22.59;55.34
36354;BME280;22383;51.114;13.666;2023-05-29T09:03:13;69753.13;;;23.20;57.97
36354;BME280;22383;51.114;13.666;2023-05-29T09:05:40;69761.78;;;23.20;57.00
36354;BME280;22383;51.114;13.666;2023-05-29T09:08:09;69757.94;;;23.19;53.57
36354;BME280;22383;51.114;13.666;2023-05-29T09:10:40;69760.97;;;23.25;56.92
36354;BME280;22383;51.114;13.666;2023-05-29T09:13:08;69782.72;;;23.44;56.84
36354;BME280;22383;51.114;13.666;2023-05-29T09:15:37;69786.72;;;23.48;55.23
36354;BME280;22383;51.114;13.666;2023-05-29T09:18:07;69750.25;;;23.17;55.08
36354;BME280;22383;51.114;13.666;2023-05-29T09:20:36;69759.09;;;23.20;55.47
36354;BME280;22383;51.114;13.666;2023-05-29T09:23:06;69756.81;;;23.18;55.23
36354;BME280;22383;51.114;13.666;2023-05-29T09:25:37;69769.38;;;23.30;53.70
36354;BME280;22383;51.114;13.666;2023-05-29T09:28:07;69799.28;;;23.59;54.35
36354;BME280;22383;51.114;13.666;2023-05-29T09:30:46;69810.44;;;23.64;53.82
36354;BME280;22383;51.114;13.666;2023-05-29T09:33:17;69821.03;;;23.78;51.96
36354;BME280;22383;51.114;13.666;2023-05-29T09:35:47;69843.78;;;23.96;53.79
36354;BME280;22383;51.114;13.666;2023-05-29T09:38:19;69839.78;;;23.93;55.79
36354;BME280;22383;51.114;13.666;2023-05-29T09:40:49;69875.28;;;24.25;53.41
36354;BME280;22383;51.114;13.666;2023-05-29T09:43:18;69880.44;;;24.29;54.24
36354;BME280;22383;51.114;13.666;2023-05-29T09:45:48;69898.78;;;24.46;52.19
36354;BME280;22383;51.114;13.666;2023-05-29T09:48:17;69898.34;;;24.48;50.17
36354;BME280;22383;51.114;13.666;2023-05-29T09:50:45;69889.59;;;24.38;53.30
36354;BME280;22383;51.114;13.666;2023-05-29T09:53:22;69870.88;;;24.23;51.00
36354;BME280;22383;51.114;13.666;2023-05-29T09:55:56;69904.06;;;24.53;49.46
36354;BME280;22383;51.114;13.666;2023-05-29T09:58:24;69894.34;;;24.44;47.23
36354;BME280;22383;51.114;13.666;2023-05-29T10:00:54;69925.13;;;24.69;44.55
36354;BME280;22383;51.114;13.666;2023-05-29T10:03:23;69902.59;;;24.47;49.24
36354;BME280;22383;51.114;13.666;2023-05-29T10:05:54;69929.13;;;24.73;49.52
36354;BME280;22383;51.114;13.666;2023-05-29T10:08:25;69960.47;;;24.99;50.20
36354;BME280;22383;51.114;13.666;2023-05-29T10:10:59;69962.91;;;25.03;48.53
36354;BME280;22383;51.114;13.666;2023-05-29T10:13:36;69976.66;;;25.16;50.04
36354;BME280;22383;51.114;13.666;2023-05-29T10:16:08;69956.19;;;25.00;49.51
36354;BME280;22383;51.114;13.666;2023-05-29T10:18:39;69900.47;;;24.47;48.65
36354;BME280;22383;51.114;13.666;2023-05-29T10:21:11;69890.16;;;24.38;50.63
36354;BME280;22383;51.114;13.666;2023-05-29T10:23:45;69868.72;;;24.24;48.38
36354;BME280;22383;51.114;13.666;2023-05-29T10:26:24;69897.75;;;24.47;49.61
36354;BME280;22383;51.114;13.666;2023-05-29T10:37:37;69957.34;;;25.01;49.30
36354;BME280;22383;51.114;13.666;2023-05-29T10:40:08;70005.59;;;25.37;48.07
36354;BME280;22383;51.114;13.666;2023-05-29T10:42:44;69999.03;;;25.36;46.54
36354;BME280;22383;51.114;13.666;2023-05-29T10:50:55;69968.38;;;25.13;47.19
36354;BME280;22383;51.114;13.666;2023-05-29T10:53:23;69969.94;;;25.12;49.12
36354;BME280;22383;51.114;13.666;2023-05-29T10:55:52;70006.06;;;25.44;49.53
36354;BME280;22383;51.114;13.666;2023-05-29T10:58:22;70011.78;;;25.50;49.02
36354;BME280;22383;51.114;13.666;2023-05-29T11:00:53;70052.75;;;25.81;47.39
36354;BME280;22383;51.114;13.666;2023-05-29T11:03:25;70054.78;;;25.88;48.22
36354;BME280;22383;51.114;13.666;2023-05-29T11:06:20;70006.06;;;25.44;48.21
36354;BME280;22383;51.114;13.666;2023-05-29T11:08:54;70026.13;;;25.62;46.48
36354;BME280;22383;51.114;13.666;2023-05-29T11:14:04;69989.28;;;25.27;48.70
36354;BME280;22383;51.114;13.666;2023-05-29T11:19:07;69987.41;;;25.23;46.89
36354;BME280;22383;51.114;13.666;2023-05-29T11:24:21;70001.75;;;25.36;46.28
36354;BME280;22383;51.114;13.666;2023-05-29T11:26:51;70047.56;;;25.77;46.68
36354;BME280;22383;51.114;13.666;2023-05-29T11:29:26;69957.34;;;25.01;47.26
36354;BME280;22383;51.114;13.666;2023-05-29T11:32:06;69835.47;;;23.84;47.66
36354;BME280;22383;51.114;13.666;2023-05-29T11:34:40;69774.38;;;23.32;48.85
36354;BME280;22383;51.114;13.666;2023-05-29T11:37:12;69778.13;;;23.40;50.14
36354;BME280;22383;51.114;13.666;2023-05-29T11:39:40;69839.22;;;23.92;46.79
36354;BME280;22383;51.114;13.666;2023-05-29T11:42:09;69878.88;;;24.30;48.13
36354;BME280;22383;51.114;13.666;2023-05-29T11:44:37;69908.91;;;24.52;44.90
36354;BME280;22383;51.114;13.666;2023-05-29T11:47:06;69940.44;;;24.81;46.30
36354;BME280;22383;51.114;13.666;2023-05-29T11:49:35;69834.09;;;23.88;45.20
36354;BME280;22383;51.114;13.666;2023-05-29T11:52:12;69913.25;;;24.61;47.75
36354;BME280;22383;51.114;13.666;2023-05-29T11:54:44;69954.50;;;24.98;45.12
36354;BME280;22383;51.114;13.666;2023-05-29T11:57:20;69957.22;;;24.98;46.80
36354;BME280;22383;51.114;13.666;2023-05-29T11:59:51;69975.94;;;25.13;50.29
36354;BME280;22383;51.114;13.666;2023-05-29T12:02:20;69992.47;;;25.35;44.78
36354;BME280;22383;51.114;13.666;2023-05-29T12:05:03;69958.34;;;24.99;46.55
36354;BME280;22383;51.114;13.666;2023-05-29T12:07:32;70005.91;;;25.42;45.54
36354;BME280;22383;51.114;13.666;2023-05-29T12:10:14;69970.94;;;25.10;45.10
36354;BME280;22383;51.114;13.666;2023-05-29T12:12:50;69985.44;;;25.26;44.88
36354;BME280;22383;51.114;13.666;2023-05-29T12:15:18;69938.44;;;24.84;47.29
36354;BME280;22383;51.114;13.666;2023-05-29T12:17:47;69959.50;;;25.00;45.76
36354;BME280;22383;51.114;13.666;2023-05-29T12:20:15;69968.50;;;25.06;44.50
36354;BME280;22383;51.114;13.666;2023-05-29T12:22:45;69994.28;;;25.29;43.84
36354;BME280;22383;51.114;13.666;2023-05-29T12:25:19;69977.25;;;25.16;42.49
36354;BME280;22383;51.114;13.666;2023-05-29T12:27:47;69975.53;;;25.15;43.74
36354;BME280;22383;51.114;13.666;2023-05-29T12:32:59;70074.53;;;26.01;46.26
36354;BME280;22383;51.114;13.666;2023-05-29T12:35:29;70057.06;;;25.90;44.00
36354;BME280;22383;51.114;13.666;2023-05-29T12:38:00;70040.13;;;25.70;43.27
36354;BME280;22383;51.114;13.666;2023-05-29T12:40:29;69974.53;;;25.16;44.10
36354;BME280;22383;51.114;13.666;2023-05-29T12:43:25;69900.31;;;24.45;45.94
36354;BME280;22383;51.114;13.666;2023-05-29T12:46:16;69779.38;;;23.34;48.45
36354;BME280;22383;51.114;13.666;2023-05-29T12:48:43;69742.31;;;23.03;48.32
36354;BME280;22383;51.114;13.666;2023-05-29T12:51:11;69719.03;;;22.84;50.19
36354;BME280;22383;51.114;13.666;2023-05-29T12:53:39;69720.34;;;22.88;50.19
36354;BME280;22383;51.114;13.666;2023-05-29T12:56:07;69719.19;;;22.87;48.82
36354;BME280;22383;51.114;13.666;2023-05-29T12:58:34;69759.09;;;23.20;53.39
36354;BME280;22383;51.114;13.666;2023-05-29T13:01:02;69856.72;;;24.13;49.71
36354;BME280;22383;51.114;13.666;2023-05-29T13:03:30;69919.41;;;24.64;49.32
36354;BME280;22383;51.114;13.666;2023-05-29T13:05:58;69969.78;;;25.09;48.95
36354;BME280;22383;51.114;13.666;2023-05-29T13:08:25;69949.47;;;24.96;49.48
36354;BME280;22383;51.114;13.666;2023-05-29T13:10:53;69897.75;;;24.47;48.83
36354;BME280;22383;51.114;13.666;2023-05-29T13:13:20;69858.13;;;24.09;51.18
36354;BME280;22383;51.114;13.666;2023-05-29T13:15:51;69789.97;;;23.48;51.37
36354;BME280;22383;51.114;13.666;2023-05-29T13:18:18;69779.69;;;23.39;51.38
36354;BME280;22383;51.114;13.666;2023-05-29T13:20:46;69765.38;;;23.26;52.21
36354;BME280;22383;51.114;13.666;2023-05-29T13:23:19;69736.91;;;23.03;50.92
36354;BME280;22383;51.114;13.666;2023-05-29T13:25:48;69723.59;;;22.89;53.68
36354;BME280;22383;51.114;13.666;2023-05-29T13:28:16;69730.44;;;22.95;51.84
36354;BME280;22383;51.114;13.666;2023-05-29T13:30:44;69739.47;;;23.00;52.28
36354;BME280;22383;51.114;13.666;2023-05-29T13:33:11;69738.63;;;23.04;50.92
36354;BME280;22383;51.114;13.666;2023-05-29T13:35:39;69771.09;;;23.31;52.50
36354;BME280;22383;51.114;13.666;2023-05-29T13:38:07;69751.66;;;23.14;50.34
36354;BME280;22383;51.114;13.666;2023-05-29T13:40:34;69752.38;;;23.17;51.33
36354;BME280;22383;51.114;13.666;2023-05-29T13:43:02;69728.75;;;22.93;51.58